Terminal Aerodrome Forecast
Issued by NWS

Home | Current Version | Previous Version | Graphics & Text | Print | Product List | Glossary On
Versions: 1 2 3 4 5 6 7 8 9 10 11 12 13 14
000
FTUS43 KMPX 141700
TAFAXN
TAF
KAXN 141740Z 1418/1518 30010KT P6SM BKN025
     FM142100 30010KT P6SM SCT025 BKN040
     FM150200 32004KT P6SM SCT040 BKN150
     FM150900 34004KT P6SM FEW050
     FM151500 33009KT P6SM SKC=

USA.gov is the U.S. government's official web portal to all federal, state and local government web resources and services.